Terminal Aerodrome Forecast
Issued by NWS Louisville, KY

Home | Current Version | Previous Version | Text Only | Print | Product List | Glossary On
Versions: 1 2 3 4 5 6 7 8 9 10 11 12 13 14 15 16 17 18 19
000
FTUS43 KLMK 181100
TAFLEX
TAF
KLEX 181121Z 1812/1912 24006KT 5SM BR VCSH BKN003 OVC010
     FM181600 26006KT P6SM BKN015
     FM181800 27007KT P6SM OVC023
     FM182000 26006KT P6SM BKN035
     FM190200 20003KT P6SM OVC030=

USA.gov is the U.S. government's official web portal to all federal, state and local government web resources and services.